Mountain Home Air Force Base
KMUO : now visible

Airfield :











YOU CAN JOIN US ON...

 
LOGIN :

Register | Disclaimer

   EN    FR    IT 

 









Legend :    VFR   Marginal VFR   IFR   Intensive IFR   Very Intensive IFR
Visi :
Ceiling :
>= 8 km
>= 3000ft
5 to 8 km
1000 to 3000 ft
1500m to 5 km
500 to 1000 ft
800 to 1500m
200 to 500 ft
< 800m
< 200 ft
Symbols :   Thunderstorms  Fog  Heavy snow  Heavy precipitations  Wind > 20 kt






- Airport Elevation : 2996 ft


KMUO - Mountain Home Air Force Base

CURRENT METAR :
  • 082158Z 31005KT 10SM FEW050 BKN065 BKN080 07/06 A2975 RMK AO2A SLP085 T00720061 RVRNO VISNO RWY30 $

EXPIRED METARs :
  • 082058Z 10004KT 10SM SCT050 BKN070 05/05 A2976 RMK AO2A SLP090 T00500049 57023 RVRNO VISNO RWY30 $
  • 081958Z 10006KT 10SM FEW050 BKN070 BKN080 04/04 A2979 RMK AO2A SLP103 T00370036 RVRNO VISNO RWY30 $
  • 081943Z 11006KT 10SM FEW050 BKN075 BKN180 04/04 A2980 RMK AO2A SLP106 RVRNO VISNO RWY30 $

TAF TAF KMUO
Valid from the 08 at 18:00 until the 10 at 00:00 UTC


081805Z 0818/0924 11012G20KT 9999 FEW030 BKN060 BKN180 610604 QNH2980INS
BECMG 0822/0823 32012G20KT 9999 SCT050 BKN100 BKN180 QNH2978INS
BECMG 0901/0902 32010G15KT 9999 BKN040 BKN200 610406 QNH2983INS
BECMG 0909/0910 32015G25KT 9999 BKN050 BKN100 BKN200 610505 510009 QNH2978INS
BECMG 0915/0916 31010G15KT 9999 FEW060 SCT180 QNH2976INS
BECMG 0918/0919 32018G28KT 9999 FEW080 SCT120 SCT200 510009 QNH2972INS TX08/0822Z TNM02/0914Z
KZLC FIR / North America



MET'MAP, your aeronautical weather chart ! - Copyright ORBIFLY December 2007 - Disclaimer

ORBIFLY MET'MAP TEAM :

Programming & Development : Alexandra Zaïnal
Concept & original design : Baudouin d'Aumeries
Assistance for programming : Marc-Olivier Méhu
Technical & hardware support : Manuel Goepfert

Contact : metmap@orbifly.com




SOURCES & CREDITS :

   NOAA       Earth
Advisory